Woodburn, Illinois
Current Conditions -  °F | °C
As of 10:35 PM on Sunday 21 Dec 2014 (Local Time) from KALN Reporting Station
Overcast Overcast  
Wind Chill: 34°   Ceiling: 4200
Heat Index: 40°   Visibility: 10mi
Dew Point: 32°   Wind: 9mph
Humidity: 74%   Direction: 120°ESE
Pressure: 29.97"   Gusts: NA
Location:  39.0426°N, 89.979°W
Report Text: KALN 220435Z AUTO 12008KT 10SM OVC042 04/00 A2997 RMK AO2 T00430000
Loading
Personal Weather Stations






























Interactive Weather Map New forecast layout! Learn more

10-Day Weather Forecast

Advertisements
Track Severe Weather on mobile